Time;durP1;ratioP1;P1;durP2;ratioP2;P2;SDS_P1;SDS_P2;PMS_P1;PMS_P2;Temp;Humidity;BMP_temperature;BMP_pressure;BME280_temperature;BME280_humidity;BME280_pressure;Samples;Min_cycle;Max_cycle;Signal;HPM_P1;HPM_P2
2021/08/03 00:00:53;;;;;;;11.40;10.17;;;;;;;12.75;91.46;98856.17;124845;1093;64319;-80
2021/08/03 00:03:30;;;;;;;10.97;9.93;;;;;;;12.76;91.44;98849.84;124697;1093;64402;-81
2021/08/03 00:05:58;;;;;;;13.97;11.20;;;;;;;12.71;91.48;98850.19;124888;1093;64296;-80
2021/08/03 00:08:35;;;;;;;11.87;10.70;;;;;;;12.71;91.72;98850.19;124865;1093;64297;-80
2021/08/03 00:11:06;;;;;;;11.20;10.10;;;;;;;12.66;91.71;98840.83;124882;1093;64271;-80
2021/08/03 00:13:35;;;;;;;12.33;9.83;;;;;;;12.69;92.23;98854.83;124946;1093;64287;-80
2021/08/03 00:16:09;;;;;;;12.75;11.45;;;;;;;12.71;92.07;98863.56;124921;1093;64287;-80
2021/08/03 00:18:41;;;;;;;11.27;9.60;;;;;;;12.74;91.92;98860.67;124833;1093;64431;-80
2021/08/03 00:21:13;;;;;;;10.30;9.27;;;;;;;12.74;92.13;98855.33;125200;1093;64543;-80
2021/08/03 00:23:46;;;;;;;10.40;9.40;;;;;;;12.80;92.01;98853.98;125048;1093;64271;-80
2021/08/03 00:26:15;;;;;;;10.37;9.37;;;;;;;12.81;92.00;98853.00;124805;1093;64371;-80
2021/08/03 00:28:49;;;;;;;11.27;9.70;;;;;;;12.79;91.95;98854.09;124935;1092;64246;-80
2021/08/03 00:31:18;;;;;;;9.90;8.70;;;;;;;12.78;91.91;98849.73;124895;1093;64297;-80
2021/08/03 00:33:49;;;;;;;9.93;7.67;;;;;;;12.77;91.62;98856.03;124850;1093;64291;-80
2021/08/03 00:36:17;;;;;;;8.43;7.57;;;;;;;12.74;91.57;98852.65;124864;1093;64296;-80
2021/08/03 00:38:45;;;;;;;7.87;7.07;;;;;;;12.57;90.90;98863.79;124815;1093;64297;-80
2021/08/03 00:41:19;;;;;;;8.93;7.87;;;;;;;12.46;91.08;98864.63;124849;1093;64248;-80
2021/08/03 00:43:46;;;;;;;8.10;7.30;;;;;;;12.40;91.24;98865.10;124803;1093;64328;-80
2021/08/03 00:46:13;;;;;;;9.53;8.57;;;;;;;12.32;91.27;98866.63;124844;1093;64489;-80
2021/08/03 00:48:41;;;;;;;8.80;7.80;;;;;;;12.23;91.12;98865.52;124866;1093;64277;-80
2021/08/03 00:51:08;;;;;;;9.70;8.03;;;;;;;12.17;91.42;98866.84;124864;1093;64271;-80
2021/08/03 00:53:35;;;;;;;9.50;8.55;;;;;;;12.14;91.47;98867.08;124744;1093;64297;-80
2021/08/03 00:56:02;;;;;;;10.10;9.20;;;;;;;12.13;91.63;98865.36;124822;1093;64901;-80
2021/08/03 00:58:30;;;;;;;9.20;8.00;;;;;;;12.14;91.79;98860.86;124837;1093;64431;-80
2021/08/03 01:00:57;;;;;;;10.93;9.83;;;;;;;12.16;91.86;98858.93;124855;1093;64323;-80
2021/08/03 01:03:24;;;;;;;9.60;8.27;;;;;;;12.17;91.88;98858.83;124870;1093;64271;-80
2021/08/03 01:06:18;;;;;;;9.80;8.80;;;;;;;12.18;91.84;98859.67;124858;1093;64248;-80
2021/08/03 01:09:08;;;;;;;10.63;9.60;;;;;;;12.16;91.92;98862.45;124847;1093;64332;-80
2021/08/03 01:11:38;;;;;;;;;;;;;;;12.12;91.89;98863.66;124878;1093;64194;-80
2021/08/03 01:14:18;;;;;;;11.33;10.15;;;;;;;12.11;92.34;98858.42;124814;1093;64241;-80
2021/08/03 01:16:55;;;;;;;13.10;10.20;;;;;;;12.12;92.32;98854.80;124837;1093;64303;-80
2021/08/03 01:19:34;;;;;;;12.00;10.77;;;;;;;12.10;92.19;98848.72;124673;1093;64290;-80
2021/08/03 01:22:38;;;;;;;12.17;9.63;;;;;;;12.10;92.43;98856.73;124637;1093;64277;-80
2021/08/03 01:25:27;;;;;;;10.30;9.20;;;;;;;12.13;92.43;98853.83;124591;1093;64316;-80
2021/08/03 01:28:21;;;;;;;12.73;10.77;;;;;;;12.15;92.61;98843.88;124863;1092;64294;-80
2021/08/03 01:31:00;;;;;;;14.27;10.17;;;;;;;12.23;92.94;98844.99;124867;1093;64309;-80
2021/08/03 01:33:30;;;;;;;9.97;9.00;;;;;;;12.29;92.90;98844.52;124849;1092;64344;-80
2021/08/03 01:35:59;;;;;;;;;;;;;;;12.29;92.88;98849.86;124893;1093;64309;-80
2021/08/03 01:38:29;;;;;;;12.07;10.87;;;;;;;12.27;92.51;98848.30;124854;1093;64389;-80
2021/08/03 01:41:05;;;;;;;12.43;11.23;;;;;;;12.27;92.85;98857.16;124874;1093;64217;-80
2021/08/03 01:43:34;;;;;;;11.93;9.97;;;;;;;12.24;92.55;98849.39;124893;1093;64297;-80
2021/08/03 01:46:03;;;;;;;11.88;10.78;;;;;;;12.19;92.16;98856.02;124915;1093;64322;-80
2021/08/03 01:48:33;;;;;;;11.05;9.90;;;;;;;12.16;92.39;98861.60;124867;1093;64277;-80
2021/08/03 01:51:01;;;;;;;10.60;8.77;;;;;;;12.16;92.48;98859.77;124852;1093;64351;-80
2021/08/03 01:53:28;;;;;;;11.67;10.57;;;;;;;12.16;92.67;98862.45;124715;1093;64293;-80
2021/08/03 01:55:58;;;;;;;13.73;12.20;;;;;;;12.16;92.71;98864.27;124927;1093;64338;-80
2021/08/03 01:58:28;;;;;;;13.00;11.83;;;;;;;12.15;92.60;98858.09;124913;1093;64271;-80
2021/08/03 02:00:56;;;;;;;12.07;11.00;;;;;;;12.14;92.41;98863.53;124909;1093;64284;-80
2021/08/03 02:03:25;;;;;;;11.70;10.57;;;;;;;12.10;92.38;98862.08;124856;1092;64414;-80
2021/08/03 02:05:55;;;;;;;14.77;9.77;;;;;;;12.07;92.43;98857.81;124878;1093;64294;-80
2021/08/03 02:08:24;;;;;;;9.97;8.93;;;;;;;12.02;92.12;98854.63;124908;1093;64298;-80
2021/08/03 02:10:52;;;;;;;10.00;8.87;;;;;;;11.94;92.01;98857.88;124743;1092;64373;-80
2021/08/03 02:13:20;;;;;;;9.77;8.77;;;;;;;11.91;92.01;98858.11;124865;1093;64418;-80
2021/08/03 02:15:48;;;;;;;10.00;8.83;;;;;;;11.90;92.15;98860.88;124886;1093;64277;-80
2021/08/03 02:18:16;;;;;;;8.87;8.03;;;;;;;11.84;92.06;98863.02;124849;1093;64283;-80
2021/08/03 02:20:45;;;;;;;11.17;9.93;;;;;;;11.81;91.97;98862.40;124860;1093;64284;-80
2021/08/03 02:23:13;;;;;;;11.87;10.33;;;;;;;11.79;92.25;98867.84;124937;1093;64219;-80
2021/08/03 02:25:42;;;;;;;13.17;10.53;;;;;;;11.73;92.29;98864.78;124884;1093;64323;-80
2021/08/03 02:28:10;;;;;;;10.27;9.27;;;;;;;11.64;92.13;98869.84;124847;1093;64696;-80
2021/08/03 02:30:39;;;;;;;12.80;10.40;;;;;;;11.61;92.11;98871.86;124889;1093;64214;-80
2021/08/03 02:33:19;;;;;;;;;;;;;;;11.58;92.42;98875.61;124903;1093;64241;-80
2021/08/03 02:36:03;;;;;;;10.93;8.80;;;;;;;11.52;92.34;98876.06;124835;1093;64284;-80
2021/08/03 02:38:36;;;;;;;12.17;10.27;;;;;;;11.52;92.62;98877.88;124889;1093;64344;-80
2021/08/03 02:41:04;;;;;;;11.50;10.30;;;;;;;11.54;92.63;98882.15;124744;1093;64357;-80
2021/08/03 02:43:34;;;;;;;11.53;9.67;;;;;;;11.55;92.83;98877.66;124920;1093;64293;-80
2021/08/03 02:46:03;;;;;;;10.07;9.07;;;;;;;11.55;92.77;98891.84;124874;1093;64721;-80
2021/08/03 02:48:33;;;;;;;12.98;11.18;;;;;;;11.57;92.63;98887.26;124926;1093;64287;-80
2021/08/03 02:51:01;;;;;;;78.20;49.50;;;;;;;11.58;92.81;98886.28;124787;1093;64293;-80
2021/08/03 02:54:01;;;;;;;45.80;31.53;;;;;;;11.56;92.74;98896.23;124893;1093;64297;-80
2021/08/03 02:56:30;;;;;;;20.00;16.90;;;;;;;11.53;92.99;98895.59;124859;1093;64367;-81
2021/08/03 02:59:06;;;;;;;27.55;20.68;;;;;;;11.48;92.71;98893.28;124869;1093;64274;-80
2021/08/03 03:01:37;;;;;;;40.17;29.57;;;;;;;11.47;92.79;98896.89;124736;1093;64287;-80
2021/08/03 03:04:23;;;;;;;55.97;36.90;;;;;;;11.49;93.18;98896.80;124864;1093;64654;-80
2021/08/03 03:06:58;;;;;;;39.20;27.63;;;;;;;11.52;93.17;98900.08;124888;1093;64229;-80
2021/08/03 03:09:29;;;;;;;23.13;18.30;;;;;;;11.62;93.40;98894.94;124779;1093;64271;-81
2021/08/03 03:11:57;;;;;;;22.23;16.10;;;;;;;11.70;93.34;98903.23;124922;1093;64279;-80
2021/08/03 03:14:27;;;;;;;24.10;17.90;;;;;;;11.73;93.17;98900.34;124842;1093;64271;-80
2021/08/03 03:16:56;;;;;;;;;;;;;;;11.71;92.92;98904.93;124835;1093;64290;-80
2021/08/03 03:19:25;;;;;;;24.27;16.90;;;;;;;11.69;93.00;98911.34;124886;1093;64460;-80
2021/08/03 03:21:54;;;;;;;17.17;15.03;;;;;;;11.70;92.84;98913.06;124760;1093;64356;-80
2021/08/03 03:24:24;;;;;;;18.67;15.17;;;;;;;11.71;93.04;98914.77;124954;1093;64287;-80
2021/08/03 03:26:54;;;;;;;15.48;13.85;;;;;;;11.72;92.94;98925.34;124922;1093;64322;-80
2021/08/03 03:29:21;;;;;;;;;;;;;;;11.71;92.67;98926.29;124935;1093;64268;-80
2021/08/03 03:31:51;;;;;;;24.43;20.37;;;;;;;11.69;92.73;98922.91;124864;1093;64276;-80
2021/08/03 03:34:19;;;;;;;23.33;18.25;;;;;;;11.65;92.48;98927.59;124873;1093;64245;-80
2021/08/03 03:36:49;;;;;;;17.85;14.00;;;;;;;11.68;92.58;98926.52;124879;1092;64275;-80
2021/08/03 03:39:17;;;;;;;17.10;13.40;;;;;;;11.66;91.74;98928.44;124905;1093;64191;-80
2021/08/03 03:41:52;;;;;;;14.97;12.83;;;;;;;11.90;91.66;98925.85;124748;1093;64383;-80
2021/08/03 03:44:19;;;;;;;13.10;11.80;;;;;;;12.65;91.10;98920.19;124732;1093;64361;-81
2021/08/03 03:46:57;;;;;;;13.15;11.85;;;;;;;13.30;89.83;98924.09;124881;1092;64290;-81
2021/08/03 03:49:30;;;;;;;16.73;13.33;;;;;;;13.86;88.53;98925.84;124907;1093;64271;-81
2021/08/03 03:52:01;;;;;;;13.27;11.87;;;;;;;14.41;87.27;98918.59;124901;1093;64284;-81
2021/08/03 03:54:33;;;;;;;20.97;14.93;;;;;;;14.95;86.44;98911.36;124899;1093;64393;-81
2021/08/03 03:57:06;;;;;;;18.37;15.03;;;;;;;15.57;85.68;98917.59;124848;1093;64462;-81
2021/08/03 03:59:37;;;;;;;19.57;15.10;;;;;;;15.95;84.54;98910.64;124909;1093;64316;-79
2021/08/03 04:02:08;;;;;;;19.17;15.13;;;;;;;16.38;83.31;98917.50;124903;1093;64226;-81
2021/08/03 04:04:41;;;;;;;18.27;16.00;;;;;;;16.84;82.49;98919.45;124900;1093;64307;-81
2021/08/03 04:07:08;;;;;;;15.20;12.73;;;;;;;17.47;82.01;98910.75;124692;1093;64360;-81
2021/08/03 04:09:38;;;;;;;14.55;13.05;;;;;;;17.97;80.61;98910.37;124829;1093;64293;-81
2021/08/03 04:12:06;;;;;;;14.17;12.67;;;;;;;18.36;78.49;98906.55;124833;1093;64269;-81
2021/08/03 04:14:36;;;;;;;12.53;11.27;;;;;;;18.60;78.03;98914.86;124851;1093;64191;-81
2021/08/03 04:17:08;;;;;;;11.20;9.97;;;;;;;18.89;76.73;98916.47;124797;1093;64306;-80
2021/08/03 04:19:35;;;;;;;11.43;10.43;;;;;;;19.18;75.94;98916.16;124810;1093;64319;-80
2021/08/03 04:22:03;;;;;;;10.73;9.80;;;;;;;19.54;75.10;98916.02;124810;1093;64350;-80
2021/08/03 04:24:30;;;;;;;12.33;9.63;;;;;;;19.93;74.78;98910.97;124775;1093;64303;-80
2021/08/03 04:26:57;;;;;;;12.63;10.57;;;;;;;20.28;73.73;98918.98;124806;1093;64261;-79
2021/08/03 04:29:24;;;;;;;10.70;9.70;;;;;;;20.64;73.26;98916.83;124874;1091;64245;-80
2021/08/03 04:31:51;;;;;;;11.63;10.57;;;;;;;20.94;72.39;98917.18;124730;1093;64314;-79
2021/08/03 04:34:18;;;;;;;10.63;9.73;;;;;;;21.20;71.56;98912.39;124830;1093;64325;-79
2021/08/03 04:36:46;;;;;;;10.05;9.10;;;;;;;21.27;71.43;98909.81;124774;1093;64277;-80
2021/08/03 04:39:13;;;;;;;10.77;9.67;;;;;;;21.42;70.81;98907.28;124654;1093;64279;-80
2021/08/03 04:41:40;;;;;;;11.60;10.53;;;;;;;21.59;70.73;98916.19;124799;1093;64338;-80
2021/08/03 04:44:08;;;;;;;10.73;9.63;;;;;;;21.87;69.96;98906.58;124781;1093;64312;-80
2021/08/03 04:46:35;;;;;;;12.53;9.57;;;;;;;21.91;69.18;98918.78;124767;1093;64339;-80
2021/08/03 04:49:03;;;;;;;9.83;8.83;;;;;;;22.13;68.73;98914.41;124662;1093;64287;-80
2021/08/03 04:51:30;;;;;;;9.43;8.53;;;;;;;22.37;68.27;98906.33;124630;1093;64357;-80
2021/08/03 04:53:57;;;;;;;8.90;8.00;;;;;;;22.66;67.98;98906.43;124776;1093;64286;-80
2021/08/03 04:56:24;;;;;;;9.83;9.03;;;;;;;22.95;67.71;98902.95;124769;1093;64252;-80
2021/08/03 04:58:51;;;;;;;9.73;8.83;;;;;;;23.15;66.81;98903.30;124807;1093;64367;-80
2021/08/03 05:01:18;;;;;;;9.33;8.43;;;;;;;23.34;66.21;98906.51;124808;1093;64309;-81
2021/08/03 05:03:46;;;;;;;8.60;7.90;;;;;;;23.36;65.56;98910.73;124805;1093;64277;-80
2021/08/03 05:06:13;;;;;;;8.07;7.23;;;;;;;23.32;64.78;98914.84;124788;1093;64213;-80
2021/08/03 05:08:40;;;;;;;7.63;7.00;;;;;;;23.34;64.71;98906.51;124653;1092;64291;-80
2021/08/03 05:11:07;;;;;;;8.10;7.30;;;;;;;23.49;64.66;98906.52;124765;1093;64351;-80
2021/08/03 05:13:34;;;;;;;6.93;6.17;;;;;;;23.66;64.50;98897.95;124766;1093;64248;-80
2021/08/03 05:16:02;;;;;;;6.83;6.30;;;;;;;23.86;64.51;98909.14;124790;1093;64271;-80
2021/08/03 05:18:29;;;;;;;6.23;5.63;;;;;;;24.07;63.87;98915.67;124795;1093;64290;-80
2021/08/03 05:20:56;;;;;;;6.20;5.60;;;;;;;24.26;63.47;98908.76;124743;1093;64291;-80
2021/08/03 05:23:23;;;;;;;5.00;4.60;;;;;;;24.37;63.19;98912.86;124905;1092;64283;-80
2021/08/03 05:25:51;;;;;;;4.20;3.55;;;;;;;24.54;62.16;98903.44;124863;1093;64223;-80
2021/08/03 05:28:18;;;;;;;5.77;3.80;;;;;;;24.63;62.04;98915.88;124872;1093;64274;-80
2021/08/03 05:30:47;;;;;;;5.17;3.37;;;;;;;24.75;61.07;98905.30;124842;1093;64268;-80
2021/08/03 05:33:14;;;;;;;4.50;4.00;;;;;;;24.68;60.86;98909.84;124891;1093;64216;-80
2021/08/03 05:35:42;;;;;;;3.70;3.40;;;;;;;24.66;60.32;98903.73;124889;1093;64769;-80
2021/08/03 05:38:09;;;;;;;4.10;3.80;;;;;;;24.42;60.94;98900.33;125113;1093;64268;-81
2021/08/03 05:40:36;;;;;;;4.23;3.47;;;;;;;24.62;60.74;98908.75;124922;1093;64287;-84
2021/08/03 05:43:04;;;;;;;4.27;3.97;;;;;;;24.98;61.03;98911.34;124934;1093;64313;-84
2021/08/03 05:45:31;;;;;;;3.67;3.37;;;;;;;24.96;59.61;98912.58;124905;1091;64393;-84
2021/08/03 05:47:59;;;;;;;3.83;3.30;;;;;;;24.89;59.67;98915.27;124987;1093;64473;-86
2021/08/03 05:50:26;;;;;;;3.10;2.90;;;;;;;24.92;59.24;98911.30;124854;1092;64303;-89
2021/08/03 05:52:53;;;;;;;3.80;3.53;;;;;;;24.85;59.28;98902.22;125007;1093;64251;-84
2021/08/03 05:55:20;;;;;;;4.93;3.00;;;;;;;24.88;59.34;98910.88;124950;1092;64247;-82
2021/08/03 05:57:48;;;;;;;2.83;2.60;;;;;;;25.10;59.26;98908.09;124869;1093;64287;-81
2021/08/03 06:00:15;;;;;;;3.50;3.00;;;;;;;25.29;59.05;98912.88;124912;1093;64392;-82
2021/08/03 06:02:43;;;;;;;3.00;2.80;;;;;;;25.38;58.18;98905.36;124880;1093;64245;-82
2021/08/03 06:05:10;;;;;;;3.20;2.73;;;;;;;25.39;57.56;98912.52;124811;1093;64401;-81
2021/08/03 06:07:41;;;;;;;3.97;3.03;;;;;;;25.32;57.29;98908.91;124874;1092;64287;-81
2021/08/03 06:10:14;;;;;;;6.93;4.03;;;;;;;25.18;57.12;98921.61;124881;1093;64293;-81
2021/08/03 06:12:53;;;;;;;4.00;2.80;;;;;;;25.16;57.14;98915.51;124906;1093;64242;-81
2021/08/03 06:15:21;;;;;;;3.33;2.75;;;;;;;25.26;57.38;98916.00;124898;1093;64284;-81
2021/08/03 06:18:13;;;;;;;3.40;3.10;;;;;;;25.35;57.34;98922.14;124868;1093;64271;-81
2021/08/03 06:20:41;;;;;;;3.10;2.87;;;;;;;25.13;58.04;98927.63;124863;1093;64284;-81
2021/08/03 06:23:12;;;;;;;4.07;3.50;;;;;;;25.53;57.79;98919.73;124882;1093;64268;-81
2021/08/03 06:25:41;;;;;;;3.30;2.90;;;;;;;25.85;57.34;98928.33;124682;1093;64341;-81
2021/08/03 06:28:08;;;;;;;4.83;3.47;;;;;;;26.09;57.19;98920.66;124879;1093;64306;-81
2021/08/03 06:30:38;;;;;;;6.10;3.50;;;;;;;25.77;55.99;98917.55;124733;1093;64255;-82
2021/08/03 06:33:06;;;;;;;3.43;3.13;;;;;;;25.34;56.16;98926.76;124874;1093;64395;-81
2021/08/03 06:35:34;;;;;;;4.27;3.27;;;;;;;24.94;56.20;98926.43;124846;1093;64296;-82
2021/08/03 06:38:01;;;;;;;3.50;2.80;;;;;;;24.79;56.95;98922.94;124759;1093;64373;-81
2021/08/03 06:40:32;;;;;;;4.53;3.37;;;;;;;24.41;57.50;98930.48;124829;1093;64297;-81
2021/08/03 06:43:09;;;;;;;4.17;3.77;;;;;;;24.02;57.84;98932.58;124877;1093;64326;-81
2021/08/03 06:45:38;;;;;;;3.60;3.30;;;;;;;24.48;58.32;98928.71;124901;1093;64274;-81
2021/08/03 06:48:20;;;;;;;4.25;3.15;;;;;;;24.84;57.83;98930.53;124867;1093;64313;-80
2021/08/03 06:51:02;;;;;;;3.67;3.13;;;;;;;25.14;56.96;98931.19;124845;1093;64279;-81
2021/08/03 06:53:30;;;;;;;3.50;3.13;;;;;;;25.05;56.41;98927.77;124746;1093;64290;-81
2021/08/03 06:56:01;;;;;;;5.80;3.60;;;;;;;25.22;56.40;98927.50;124914;1093;64271;-81
2021/08/03 06:58:35;;;;;;;3.50;3.20;;;;;;;25.30;56.20;98920.00;124826;1093;64245;-81
2021/08/03 07:01:03;;;;;;;3.77;3.37;;;;;;;25.46;56.26;98923.47;124682;1093;65482;-81
2021/08/03 07:03:37;;;;;;;5.57;3.47;;;;;;;25.48;56.57;98927.68;124864;1093;64326;-81
2021/08/03 07:06:07;;;;;;;3.27;2.97;;;;;;;25.68;55.31;98918.78;124898;1093;64271;-81
2021/08/03 07:08:37;;;;;;;4.03;3.40;;;;;;;25.55;55.99;98922.28;124905;1093;64392;-81
2021/08/03 07:11:06;;;;;;;3.60;3.30;;;;;;;25.20;54.83;98922.27;124896;1093;64332;-81
2021/08/03 07:13:38;;;;;;;4.20;3.13;;;;;;;24.87;55.08;98913.78;124924;1093;64290;-81
2021/08/03 07:16:05;;;;;;;3.77;3.37;;;;;;;24.50;56.43;98918.47;124828;1093;64283;-81
2021/08/03 07:18:34;;;;;;;3.07;2.73;;;;;;;24.22;57.11;98927.34;124827;1093;64222;-82
2021/08/03 07:21:02;;;;;;;3.57;3.27;;;;;;;23.94;58.69;98921.80;124768;1093;64258;-82
2021/08/03 07:23:32;;;;;;;3.73;3.23;;;;;;;23.85;58.84;98914.76;124881;1093;64231;-82
2021/08/03 07:25:59;;;;;;;5.77;2.67;;;;;;;23.73;57.69;98921.73;124895;1093;64289;-82
2021/08/03 07:28:27;;;;;;;8.10;3.20;;;;;;;23.34;57.36;98917.39;124759;1093;64335;-82
2021/08/03 07:30:54;;;;;;;5.40;3.53;;;;;;;22.94;58.40;98914.02;124876;1093;64373;-82
2021/08/03 07:33:22;;;;;;;13.25;3.30;;;;;;;22.76;58.91;98925.21;124836;1093;64347;-81
2021/08/03 07:35:49;;;;;;;6.00;3.00;;;;;;;22.67;59.27;98919.01;124713;1093;64332;-82
2021/08/03 07:38:16;;;;;;;7.87;5.23;;;;;;;22.56;58.85;98927.56;124860;1093;64367;-81
2021/08/03 07:40:43;;;;;;;3.23;2.97;;;;;;;22.47;59.69;98928.66;124859;1093;64290;-81
2021/08/03 07:43:10;;;;;;;5.73;4.13;;;;;;;22.52;60.16;98929.80;124864;1093;64284;-82
2021/08/03 07:45:38;;;;;;;3.40;2.80;;;;;;;22.53;60.31;98923.34;124886;1093;64252;-81
2021/08/03 07:48:08;;;;;;;4.33;2.90;;;;;;;22.60;60.03;98930.78;124851;1093;64297;-82
2021/08/03 07:50:35;;;;;;;;;;;;;;;22.78;60.23;98932.16;124894;1092;64296;-81
2021/08/03 07:53:03;;;;;;;2.67;2.30;;;;;;;23.04;59.16;98928.23;124887;1093;64358;-82
2021/08/03 07:55:30;;;;;;;3.23;2.83;;;;;;;23.33;58.09;98929.27;124867;1093;64303;-82
2021/08/03 07:57:57;;;;;;;2.17;1.97;;;;;;;23.26;57.24;98931.08;124860;1093;64213;-82
2021/08/03 08:00:24;;;;;;;2.27;2.07;;;;;;;23.26;56.65;98925.63;124753;1093;64217;-82
2021/08/03 08:02:51;;;;;;;2.30;2.10;;;;;;;23.33;56.56;98930.14;124847;1093;64376;-82
2021/08/03 08:05:19;;;;;;;2.40;2.20;;;;;;;23.39;56.94;98925.83;124869;1093;64325;-82
2021/08/03 08:07:46;;;;;;;2.20;2.00;;;;;;;23.38;57.09;98929.56;124868;1093;64219;-82
2021/08/03 08:10:13;;;;;;;3.53;2.23;;;;;;;23.39;57.25;98923.95;124878;1093;64271;-81
2021/08/03 08:12:40;;;;;;;2.83;2.33;;;;;;;23.39;58.08;98925.83;124732;1092;64335;-81
2021/08/03 08:15:09;;;;;;;3.20;2.83;;;;;;;23.35;58.68;98919.91;124745;1093;64294;-81
2021/08/03 08:17:36;;;;;;;5.00;3.23;;;;;;;23.47;59.08;98920.30;124861;1093;64274;-81
2021/08/03 08:20:04;;;;;;;9.10;3.30;;;;;;;23.52;59.16;98919.74;124885;1093;64728;-81
2021/08/03 08:22:31;;;;;;;2.83;2.43;;;;;;;23.37;58.53;98925.17;124905;1093;64276;-81
2021/08/03 08:24:58;;;;;;;3.20;2.33;;;;;;;23.24;58.37;98923.09;124841;1093;65180;-81
2021/08/03 08:27:25;;;;;;;3.00;2.27;;;;;;;23.17;58.97;98923.00;124904;1093;64399;-81
2021/08/03 08:29:53;;;;;;;2.20;2.10;;;;;;;23.01;58.10;98917.70;124785;1093;64325;-81
2021/08/03 08:32:20;;;;;;;2.45;2.15;;;;;;;22.96;58.63;98915.56;124878;1093;64290;-81
2021/08/03 08:34:47;;;;;;;2.90;2.53;;;;;;;22.99;58.89;98917.06;124873;1092;64287;-81
2021/08/03 08:37:14;;;;;;;2.07;1.83;;;;;;;23.13;59.20;98915.39;124892;1093;64274;-81
2021/08/03 08:39:42;;;;;;;2.03;1.90;;;;;;;23.25;58.81;98913.05;124865;1093;64297;-81
2021/08/03 08:42:09;;;;;;;2.67;2.47;;;;;;;23.33;58.82;98921.98;124861;1093;64392;-81
2021/08/03 08:44:38;;;;;;;1.80;1.70;;;;;;;23.43;59.51;98914.40;124861;1093;64279;-81
2021/08/03 08:47:09;;;;;;;1.67;1.53;;;;;;;23.49;57.80;98917.41;124903;1093;64277;-81
2021/08/03 08:49:37;;;;;;;3.40;1.60;;;;;;;23.42;57.64;98914.57;124882;1093;64312;-81
2021/08/03 08:52:06;;;;;;;2.00;1.80;;;;;;;23.43;57.78;98916.25;124812;1093;64367;-81
2021/08/03 08:54:33;;;;;;;2.53;1.70;;;;;;;23.43;57.97;98916.25;124923;1093;64345;-81
2021/08/03 08:57:00;;;;;;;2.00;1.90;;;;;;;23.61;57.85;98921.32;124870;1092;64246;-81
2021/08/03 08:59:28;;;;;;;1.67;1.40;;;;;;;23.64;57.32;98908.20;124904;1093;64300;-81
2021/08/03 09:01:55;;;;;;;2.03;1.37;;;;;;;23.68;56.64;98903.22;124861;1093;64244;-81
2021/08/03 09:04:24;;;;;;;4.20;1.33;;;;;;;23.59;55.56;98910.64;124777;1093;64836;-81
2021/08/03 09:07:07;;;;;;;1.63;1.53;;;;;;;23.32;55.04;98906.68;124952;1092;64396;-81
2021/08/03 09:09:42;;;;;;;1.57;1.47;;;;;;;23.28;55.42;98910.82;124859;1093;64271;-81
2021/08/03 09:12:11;;;;;;;1.70;1.60;;;;;;;23.43;56.32;98908.96;124900;1093;64251;-81
2021/08/03 09:14:43;;;;;;;1.67;1.33;;;;;;;23.56;55.84;98902.83;124900;1092;64344;-81
2021/08/03 09:17:11;;;;;;;1.57;1.47;;;;;;;23.79;56.24;98901.92;124888;1093;64431;-81
2021/08/03 09:19:41;;;;;;;2.17;1.70;;;;;;;23.96;56.39;98907.98;124761;1093;64284;-81
2021/08/03 09:22:17;;;;;;;2.03;1.93;;;;;;;24.02;56.25;98909.95;124923;1093;64271;-81
2021/08/03 09:24:47;;;;;;;1.43;1.10;;;;;;;24.11;54.25;98908.79;124861;1092;64188;-82
2021/08/03 09:27:39;;;;;;;1.60;1.00;;;;;;;23.93;53.37;98905.64;124758;1093;64339;-82
2021/08/03 09:30:28;;;;;;;1.63;1.00;;;;;;;23.88;54.10;98912.52;124853;1093;64287;-81
2021/08/03 09:32:55;;;;;;;1.57;1.30;;;;;;;23.99;54.39;98910.34;124869;1093;64275;-81
2021/08/03 09:35:25;;;;;;;2.70;1.50;;;;;;;24.06;54.23;98911.24;124836;1093;64274;-81
2021/08/03 09:37:54;;;;;;;1.30;1.20;;;;;;;24.19;53.13;98897.78;124917;1093;64360;-81
2021/08/03 09:40:28;;;;;;;11.83;3.27;;;;;;;24.21;53.93;98898.44;124986;1093;64223;-81
2021/08/03 09:43:04;;;;;;;2.17;1.13;;;;;;;24.01;52.53;98897.36;124875;1093;64888;-81
2021/08/03 09:45:34;;;;;;;2.33;1.40;;;;;;;24.02;53.20;98908.08;124818;1093;64278;-81
2021/08/03 09:48:15;;;;;;;1.93;1.53;;;;;;;24.06;53.15;98901.19;124798;1093;64184;-81
2021/08/03 09:50:54;;;;;;;2.30;2.07;;;;;;;24.18;53.60;98892.55;124918;1093;64299;-81
2021/08/03 09:53:48;;;;;;;1.93;1.60;;;;;;;24.25;53.84;98890.71;124816;1093;64340;-81
2021/08/03 09:56:27;;;;;;;1.80;1.30;;;;;;;24.15;52.79;98887.48;124869;1093;64406;-81
2021/08/03 09:59:03;;;;;;;1.70;1.60;;;;;;;23.99;53.59;98885.84;124885;1092;64284;-81
2021/08/03 10:01:33;;;;;;;1.70;1.30;;;;;;;24.05;53.67;98882.34;124936;1093;64195;-81
2021/08/03 10:04:06;;;;;;;3.63;2.27;;;;;;;24.10;53.90;98879.89;124851;1093;64246;-81
2021/08/03 10:06:35;;;;;;;1.33;1.33;;;;;;;24.22;53.93;98885.66;124853;1093;64272;-81
2021/08/03 10:09:04;;;;;;;1.00;1.00;;;;;;;24.41;53.35;98885.04;124878;1093;64290;-80
2021/08/03 10:11:32;;;;;;;1.30;1.25;;;;;;;24.44;52.38;98881.95;124920;1093;64291;-80
2021/08/03 10:13:59;;;;;;;1.47;1.33;;;;;;;24.56;52.47;98887.70;124933;1093;64760;-81
2021/08/03 10:16:27;;;;;;;2.10;1.13;;;;;;;24.65;51.93;98883.83;124831;1093;64290;-80
2021/08/03 10:18:57;;;;;;;1.53;1.43;;;;;;;24.79;51.79;98881.22;124866;1092;64383;-80
2021/08/03 10:21:37;;;;;;;2.03;1.10;;;;;;;24.82;51.81;98884.38;124877;1093;64309;-81
2021/08/03 10:24:20;;;;;;;2.15;1.15;;;;;;;24.99;51.97;98884.95;124879;1092;64386;-81
2021/08/03 10:27:12;;;;;;;1.85;1.25;;;;;;;25.19;52.39;98885.10;124933;1093;64271;-81
2021/08/03 10:29:54;;;;;;;2.60;1.57;;;;;;;25.44;51.89;98876.46;124848;1093;64392;-81
2021/08/03 10:32:47;;;;;;;2.17;1.23;;;;;;;25.56;52.04;98863.91;124913;1093;64310;-81
2021/08/03 10:35:15;;;;;;;1.50;1.40;;;;;;;25.72;51.19;98857.27;124900;1093;64274;-81
2021/08/03 10:38:01;;;;;;;1.70;1.20;;;;;;;25.74;50.78;98866.94;124893;1093;64191;-81
2021/08/03 10:40:43;;;;;;;1.25;1.15;;;;;;;25.75;50.07;98859.58;124839;1093;64271;-81
2021/08/03 10:43:39;;;;;;;1.65;1.50;;;;;;;25.72;50.43;98860.83;124897;1093;64287;-81
2021/08/03 10:46:06;;;;;;;3.40;1.47;;;;;;;25.79;50.48;98852.68;124883;1093;64313;-80
2021/08/03 10:48:40;;;;;;;49.40;13.47;;;;;;;25.88;50.42;98854.20;124850;1093;64418;-81
2021/08/03 10:51:13;;;;;;;19.75;6.75;;;;;;;25.95;50.58;98855.08;124843;1093;64280;-80
2021/08/03 10:53:52;;;;;;;5.03;2.57;;;;;;;25.93;50.77;98851.70;124837;1093;64291;-80
2021/08/03 10:56:19;;;;;;;6.47;2.67;;;;;;;25.99;50.33;98844.59;124913;1093;64268;-80
2021/08/03 10:58:47;;;;;;;2.80;1.80;;;;;;;26.03;50.17;98845.85;124884;1093;64277;-80
2021/08/03 11:01:43;;;;;;;4.05;2.05;;;;;;;25.83;49.84;98845.78;124911;1093;64431;-80
2021/08/03 11:04:46;;;;;;;1.20;1.10;;;;;;;25.69;48.91;98838.56;124874;1093;64463;-80
2021/08/03 11:07:34;;;;;;;2.83;1.30;;;;;;;25.55;49.48;98843.14;124859;1093;64268;-80
2021/08/03 11:10:25;;;;;;;1.10;1.10;;;;;;;25.69;49.35;98833.11;124896;1093;64271;-80
2021/08/03 11:12:53;;;;;;;3.17;1.60;;;;;;;25.74;47.82;98833.34;124892;1093;64306;-80
2021/08/03 11:15:20;;;;;;;0.97;0.97;;;;;;;25.84;48.19;98828.38;124885;1093;64364;-81
2021/08/03 11:17:55;;;;;;;1.73;1.10;;;;;;;25.74;48.46;98838.80;124875;1093;64274;-80
2021/08/03 11:20:36;;;;;;;1.23;1.20;;;;;;;25.62;47.87;98833.94;124838;1093;64290;-80
2021/08/03 11:23:04;;;;;;;1.27;1.17;;;;;;;25.64;48.42;98830.98;124855;1093;64245;-80
2021/08/03 11:25:32;;;;;;;1.33;1.10;;;;;;;25.35;48.23;98830.22;125129;1093;64287;-81
2021/08/03 11:28:13;;;;;;;1.53;1.43;;;;;;;25.29;48.62;98819.29;124834;1093;64267;-80
2021/08/03 11:30:43;;;;;;;1.20;1.10;;;;;;;25.32;48.89;98816.98;124769;1093;64354;-81
2021/08/03 11:33:15;;;;;;;2.97;1.30;;;;;;;25.34;48.69;98814.07;124912;1093;64293;-81
2021/08/03 11:35:42;;;;;;;1.63;1.50;;;;;;;25.35;49.06;98822.03;124889;1093;64300;-81
2021/08/03 11:38:12;;;;;;;1.10;1.00;;;;;;;25.40;48.68;98821.44;124850;1093;64392;-81
2021/08/03 11:40:41;;;;;;;1.40;1.30;;;;;;;25.23;48.31;98825.56;124896;1093;64263;-81